Ashford, Alabama
Current Conditions -  °F | °C
As of 11:53 AM on Friday 24 Oct 2014 (Local Time) from KDHN Reporting Station
Clear Clear  
Wind Chill: 72°   Ceiling: Unl
Heat Index: 72°   Visibility: 10mi
Dew Point: 44°   Wind: 7mph
Humidity: 37%   Direction: 300°WNW
Pressure: 30.08"   Gusts: NA
Location:  31.18°N, 85.24°W
Report Text: KDHN 241653Z 30006KT 10SM CLR 22/07 A3008 RMK AO2 SLP182 T02220067
Loading
Personal Weather Stations






























Interactive Weather Map New forecast layout! Learn more

10-Day Weather Forecast

Advertisements
Track Severe Weather on mobile